sensor_id;sensor_type;location;lat;lon;timestamp;P1;durP1;ratioP1;P2;durP2;ratioP2
27199;SDS011;14714;48.106;11.546;2022-12-04T00:01:04;28.30;;;14.63;;
27199;SDS011;14714;48.106;11.546;2022-12-04T00:03:32;34.70;;;15.52;;
27199;SDS011;14714;48.106;11.546;2022-12-04T00:06:03;30.38;;;14.55;;
27199;SDS011;14714;48.106;11.546;2022-12-04T00:08:34;31.45;;;14.38;;
27199;SDS011;14714;48.106;11.546;2022-12-04T00:11:02;29.08;;;14.10;;
27199;SDS011;14714;48.106;11.546;2022-12-04T00:13:30;28.35;;;14.07;;
27199;SDS011;14714;48.106;11.546;2022-12-04T00:15:58;28.45;;;14.18;;
27199;SDS011;14714;48.106;11.546;2022-12-04T00:18:25;28.10;;;14.00;;
27199;SDS011;14714;48.106;11.546;2022-12-04T00:20:52;39.05;;;17.63;;
27199;SDS011;14714;48.106;11.546;2022-12-04T00:23:19;34.13;;;14.45;;
27199;SDS011;14714;48.106;11.546;2022-12-04T00:25:45;33.83;;;15.50;;
27199;SDS011;14714;48.106;11.546;2022-12-04T00:28:17;31.30;;;14.45;;
27199;SDS011;14714;48.106;11.546;2022-12-04T00:30:44;30.98;;;15.10;;
27199;SDS011;14714;48.106;11.546;2022-12-04T00:33:11;38.97;;;16.90;;
27199;SDS011;14714;48.106;11.546;2022-12-04T00:35:39;31.23;;;14.20;;
27199;SDS011;14714;48.106;11.546;2022-12-04T00:38:06;35.75;;;15.90;;
27199;SDS011;14714;48.106;11.546;2022-12-04T00:40:33;31.10;;;15.27;;
27199;SDS011;14714;48.106;11.546;2022-12-04T00:42:59;31.73;;;15.60;;
27199;SDS011;14714;48.106;11.546;2022-12-04T00:45:26;34.05;;;16.27;;
27199;SDS011;14714;48.106;11.546;2022-12-04T00:47:53;31.52;;;14.38;;
27199;SDS011;14714;48.106;11.546;2022-12-04T00:50:20;34.65;;;15.25;;
27199;SDS011;14714;48.106;11.546;2022-12-04T00:52:47;27.80;;;14.07;;
27199;SDS011;14714;48.106;11.546;2022-12-04T00:55:14;29.38;;;13.75;;
27199;SDS011;14714;48.106;11.546;2022-12-04T00:57:41;31.70;;;14.30;;
27199;SDS011;14714;48.106;11.546;2022-12-04T01:00:07;28.15;;;13.18;;
27199;SDS011;14714;48.106;11.546;2022-12-04T01:02:34;29.42;;;14.07;;
27199;SDS011;14714;48.106;11.546;2022-12-04T01:05:02;27.05;;;13.70;;
27199;SDS011;14714;48.106;11.546;2022-12-04T01:07:29;28.95;;;13.27;;
27199;SDS011;14714;48.106;11.546;2022-12-04T01:09:55;27.40;;;13.80;;
27199;SDS011;14714;48.106;11.546;2022-12-04T01:12:23;29.00;;;13.93;;
27199;SDS011;14714;48.106;11.546;2022-12-04T01:14:49;32.50;;;14.48;;
27199;SDS011;14714;48.106;11.546;2022-12-04T01:17:16;39.63;;;16.65;;
27199;SDS011;14714;48.106;11.546;2022-12-04T01:19:43;32.47;;;15.60;;
27199;SDS011;14714;48.106;11.546;2022-12-04T01:22:10;30.20;;;15.20;;
27199;SDS011;14714;48.106;11.546;2022-12-04T01:24:37;32.17;;;14.95;;
27199;SDS011;14714;48.106;11.546;2022-12-04T01:27:04;33.53;;;15.80;;
27199;SDS011;14714;48.106;11.546;2022-12-04T01:29:30;42.38;;;17.98;;
27199;SDS011;14714;48.106;11.546;2022-12-04T01:31:57;34.45;;;14.88;;
27199;SDS011;14714;48.106;11.546;2022-12-04T01:34:24;29.52;;;14.60;;
27199;SDS011;14714;48.106;11.546;2022-12-04T01:36:51;29.25;;;14.27;;
27199;SDS011;14714;48.106;11.546;2022-12-04T01:39:18;26.75;;;14.02;;
27199;SDS011;14714;48.106;11.546;2022-12-04T01:41:44;30.20;;;14.25;;
27199;SDS011;14714;48.106;11.546;2022-12-04T01:44:15;25.15;;;12.57;;
27199;SDS011;14714;48.106;11.546;2022-12-04T01:46:46;30.08;;;13.50;;
27199;SDS011;14714;48.106;11.546;2022-12-04T01:49:17;28.30;;;13.32;;
27199;SDS011;14714;48.106;11.546;2022-12-04T01:51:52;29.88;;;14.55;;
27199;SDS011;14714;48.106;11.546;2022-12-04T01:54:41;30.17;;;14.52;;
27199;SDS011;14714;48.106;11.546;2022-12-04T01:57:18;31.88;;;14.82;;
27199;SDS011;14714;48.106;11.546;2022-12-04T02:02:28;31.73;;;14.75;;
27199;SDS011;14714;48.106;11.546;2022-12-04T02:05:01;32.63;;;15.18;;
27199;SDS011;14714;48.106;11.546;2022-12-04T02:07:29;33.55;;;15.32;;
27199;SDS011;14714;48.106;11.546;2022-12-04T02:09:56;40.70;;;18.92;;
27199;SDS011;14714;48.106;11.546;2022-12-04T02:12:35;26.88;;;13.70;;
27199;SDS011;14714;48.106;11.546;2022-12-04T02:15:19;33.67;;;15.05;;
27199;SDS011;14714;48.106;11.546;2022-12-04T02:20:32;34.35;;;15.15;;
27199;SDS011;14714;48.106;11.546;2022-12-04T02:26:25;34.00;;;14.52;;
27199;SDS011;14714;48.106;11.546;2022-12-04T02:28:56;28.48;;;13.70;;
27199;SDS011;14714;48.106;11.546;2022-12-04T02:31:42;33.80;;;15.00;;
27199;SDS011;14714;48.106;11.546;2022-12-04T02:34:20;36.55;;;14.30;;
27199;SDS011;14714;48.106;11.546;2022-12-04T02:37:25;32.53;;;13.38;;
27199;SDS011;14714;48.106;11.546;2022-12-04T02:39:54;27.90;;;13.90;;
27199;SDS011;14714;48.106;11.546;2022-12-04T02:42:35;31.25;;;13.88;;
27199;SDS011;14714;48.106;11.546;2022-12-04T02:45:08;25.70;;;12.43;;
27199;SDS011;14714;48.106;11.546;2022-12-04T02:47:40;31.85;;;13.63;;
27199;SDS011;14714;48.106;11.546;2022-12-04T02:50:09;36.83;;;13.38;;
27199;SDS011;14714;48.106;11.546;2022-12-04T02:52:40;24.85;;;13.05;;
27199;SDS011;14714;48.106;11.546;2022-12-04T02:55:12;30.70;;;14.40;;
27199;SDS011;14714;48.106;11.546;2022-12-04T02:57:47;28.02;;;13.80;;
27199;SDS011;14714;48.106;11.546;2022-12-04T03:00:16;26.70;;;13.13;;
27199;SDS011;14714;48.106;11.546;2022-12-04T03:02:50;29.17;;;13.77;;
27199;SDS011;14714;48.106;11.546;2022-12-04T03:05:23;24.95;;;12.70;;
27199;SDS011;14714;48.106;11.546;2022-12-04T03:08:02;30.05;;;13.88;;
27199;SDS011;14714;48.106;11.546;2022-12-04T03:10:35;26.80;;;13.77;;
27199;SDS011;14714;48.106;11.546;2022-12-04T03:13:10;34.15;;;13.63;;
27199;SDS011;14714;48.106;11.546;2022-12-04T03:15:47;28.77;;;14.13;;
27199;SDS011;14714;48.106;11.546;2022-12-04T03:18:25;30.48;;;14.30;;
27199;SDS011;14714;48.106;11.546;2022-12-04T03:21:02;30.05;;;14.20;;
27199;SDS011;14714;48.106;11.546;2022-12-04T03:23:38;27.77;;;13.32;;
27199;SDS011;14714;48.106;11.546;2022-12-04T03:26:31;33.67;;;14.00;;
27199;SDS011;14714;48.106;11.546;2022-12-04T03:34:09;31.13;;;14.05;;
27199;SDS011;14714;48.106;11.546;2022-12-04T03:36:41;29.50;;;13.48;;
27199;SDS011;14714;48.106;11.546;2022-12-04T03:39:19;32.33;;;14.05;;
27199;SDS011;14714;48.106;11.546;2022-12-04T03:47:33;31.85;;;13.40;;
27199;SDS011;14714;48.106;11.546;2022-12-04T03:58:03;32.28;;;13.88;;
27199;SDS011;14714;48.106;11.546;2022-12-04T04:00:36;27.85;;;12.77;;
27199;SDS011;14714;48.106;11.546;2022-12-04T04:03:08;28.85;;;13.85;;
27199;SDS011;14714;48.106;11.546;2022-12-04T04:05:40;32.70;;;14.57;;
27199;SDS011;14714;48.106;11.546;2022-12-04T04:08:10;30.73;;;13.95;;
27199;SDS011;14714;48.106;11.546;2022-12-04T04:13:50;33.47;;;13.43;;
27199;SDS011;14714;48.106;11.546;2022-12-04T04:16:44;27.92;;;13.18;;
27199;SDS011;14714;48.106;11.546;2022-12-04T04:19:33;29.23;;;14.25;;
27199;SDS011;14714;48.106;11.546;2022-12-04T04:22:21;29.20;;;14.43;;
27199;SDS011;14714;48.106;11.546;2022-12-04T04:25:10;31.27;;;14.20;;
27199;SDS011;14714;48.106;11.546;2022-12-04T04:27:39;31.25;;;13.55;;
27199;SDS011;14714;48.106;11.546;2022-12-04T04:30:07;29.42;;;13.27;;
27199;SDS011;14714;48.106;11.546;2022-12-04T04:32:44;27.63;;;13.65;;
27199;SDS011;14714;48.106;11.546;2022-12-04T04:40:58;26.02;;;13.80;;
27199;SDS011;14714;48.106;11.546;2022-12-04T04:43:43;27.13;;;13.73;;
27199;SDS011;14714;48.106;11.546;2022-12-04T04:46:34;25.88;;;13.10;;
27199;SDS011;14714;48.106;11.546;2022-12-04T04:49:07;26.85;;;13.68;;
27199;SDS011;14714;48.106;11.546;2022-12-04T04:54:04;22.98;;;11.90;;
27199;SDS011;14714;48.106;11.546;2022-12-04T04:56:41;24.88;;;12.70;;
27199;SDS011;14714;48.106;11.546;2022-12-04T04:59:10;23.33;;;12.40;;
27199;SDS011;14714;48.106;11.546;2022-12-04T05:01:38;25.98;;;12.25;;
27199;SDS011;14714;48.106;11.546;2022-12-04T05:04:06;23.50;;;12.43;;
27199;SDS011;14714;48.106;11.546;2022-12-04T05:06:33;22.63;;;12.60;;
27199;SDS011;14714;48.106;11.546;2022-12-04T05:09:00;24.48;;;13.30;;
27199;SDS011;14714;48.106;11.546;2022-12-04T05:11:27;22.15;;;11.98;;
27199;SDS011;14714;48.106;11.546;2022-12-04T05:13:54;22.15;;;12.52;;
27199;SDS011;14714;48.106;11.546;2022-12-04T05:16:21;24.88;;;12.68;;
27199;SDS011;14714;48.106;11.546;2022-12-04T05:18:48;22.73;;;12.70;;
27199;SDS011;14714;48.106;11.546;2022-12-04T05:21:34;23.23;;;12.52;;
27199;SDS011;14714;48.106;11.546;2022-12-04T05:24:01;24.15;;;12.55;;
27199;SDS011;14714;48.106;11.546;2022-12-04T05:26:27;24.60;;;12.55;;
27199;SDS011;14714;48.106;11.546;2022-12-04T05:28:54;24.67;;;12.68;;
27199;SDS011;14714;48.106;11.546;2022-12-04T05:31:21;23.80;;;12.43;;
27199;SDS011;14714;48.106;11.546;2022-12-04T05:33:48;22.95;;;12.10;;
27199;SDS011;14714;48.106;11.546;2022-12-04T05:36:14;22.67;;;12.73;;
27199;SDS011;14714;48.106;11.546;2022-12-04T05:38:41;21.80;;;12.35;;
27199;SDS011;14714;48.106;11.546;2022-12-04T05:41:08;23.83;;;12.05;;
27199;SDS011;14714;48.106;11.546;2022-12-04T05:43:35;22.52;;;12.75;;
27199;SDS011;14714;48.106;11.546;2022-12-04T05:46:05;23.05;;;12.48;;
27199;SDS011;14714;48.106;11.546;2022-12-04T05:48:33;21.95;;;11.45;;
27199;SDS011;14714;48.106;11.546;2022-12-04T05:51:07;24.13;;;12.52;;
27199;SDS011;14714;48.106;11.546;2022-12-04T05:53:35;23.00;;;12.10;;
27199;SDS011;14714;48.106;11.546;2022-12-04T05:56:03;23.52;;;12.25;;
27199;SDS011;14714;48.106;11.546;2022-12-04T05:58:33;24.88;;;12.85;;
27199;SDS011;14714;48.106;11.546;2022-12-04T06:01:06;25.60;;;12.85;;
27199;SDS011;14714;48.106;11.546;2022-12-04T06:03:34;23.45;;;12.10;;
27199;SDS011;14714;48.106;11.546;2022-12-04T06:06:01;23.70;;;12.63;;
27199;SDS011;14714;48.106;11.546;2022-12-04T06:08:30;23.17;;;12.70;;
27199;SDS011;14714;48.106;11.546;2022-12-04T06:10:57;23.98;;;13.00;;
27199;SDS011;14714;48.106;11.546;2022-12-04T06:13:23;26.17;;;13.38;;
27199;SDS011;14714;48.106;11.546;2022-12-04T06:15:50;24.45;;;13.23;;
27199;SDS011;14714;48.106;11.546;2022-12-04T06:18:17;25.90;;;13.52;;
27199;SDS011;14714;48.106;11.546;2022-12-04T06:20:43;23.98;;;12.60;;
27199;SDS011;14714;48.106;11.546;2022-12-04T06:23:10;23.73;;;13.02;;
27199;SDS011;14714;48.106;11.546;2022-12-04T06:25:37;24.40;;;12.63;;
27199;SDS011;14714;48.106;11.546;2022-12-04T06:28:04;26.25;;;13.20;;
27199;SDS011;14714;48.106;11.546;2022-12-04T06:30:32;26.35;;;13.60;;
27199;SDS011;14714;48.106;11.546;2022-12-04T06:32:59;22.40;;;12.05;;
27199;SDS011;14714;48.106;11.546;2022-12-04T06:35:26;25.67;;;13.40;;
27199;SDS011;14714;48.106;11.546;2022-12-04T06:37:52;24.98;;;13.40;;
27199;SDS011;14714;48.106;11.546;2022-12-04T06:40:19;26.10;;;13.23;;
27199;SDS011;14714;48.106;11.546;2022-12-04T06:42:46;26.42;;;12.85;;
27199;SDS011;14714;48.106;11.546;2022-12-04T06:45:12;27.05;;;13.18;;
27199;SDS011;14714;48.106;11.546;2022-12-04T06:47:40;26.13;;;12.93;;
27199;SDS011;14714;48.106;11.546;2022-12-04T06:50:07;27.65;;;13.35;;
27199;SDS011;14714;48.106;11.546;2022-12-04T06:52:34;22.63;;;11.95;;
27199;SDS011;14714;48.106;11.546;2022-12-04T06:55:00;25.85;;;13.30;;
27199;SDS011;14714;48.106;11.546;2022-12-04T06:57:27;24.42;;;12.35;;
27199;SDS011;14714;48.106;11.546;2022-12-04T06:59:54;24.35;;;12.68;;
27199;SDS011;14714;48.106;11.546;2022-12-04T07:02:21;25.88;;;13.20;;
27199;SDS011;14714;48.106;11.546;2022-12-04T07:04:48;25.67;;;13.32;;
27199;SDS011;14714;48.106;11.546;2022-12-04T07:07:14;27.10;;;14.30;;
27199;SDS011;14714;48.106;11.546;2022-12-04T07:09:41;26.65;;;13.35;;
27199;SDS011;14714;48.106;11.546;2022-12-04T07:12:09;29.63;;;14.13;;
27199;SDS011;14714;48.106;11.546;2022-12-04T07:14:36;25.80;;;13.63;;
27199;SDS011;14714;48.106;11.546;2022-12-04T07:17:02;30.00;;;14.35;;
27199;SDS011;14714;48.106;11.546;2022-12-04T07:19:29;30.77;;;15.25;;
27199;SDS011;14714;48.106;11.546;2022-12-04T07:21:56;30.27;;;14.48;;
27199;SDS011;14714;48.106;11.546;2022-12-04T07:24:23;28.65;;;14.23;;
27199;SDS011;14714;48.106;11.546;2022-12-04T07:26:49;30.38;;;15.25;;
27199;SDS011;14714;48.106;11.546;2022-12-04T07:29:16;31.27;;;15.23;;
27199;SDS011;14714;48.106;11.546;2022-12-04T07:31:43;30.75;;;15.35;;
27199;SDS011;14714;48.106;11.546;2022-12-04T07:34:10;28.60;;;14.48;;
27199;SDS011;14714;48.106;11.546;2022-12-04T07:36:37;32.35;;;14.65;;
27199;SDS011;14714;48.106;11.546;2022-12-04T07:39:04;30.52;;;14.57;;
27199;SDS011;14714;48.106;11.546;2022-12-04T07:41:31;28.23;;;14.38;;
27199;SDS011;14714;48.106;11.546;2022-12-04T07:43:58;26.98;;;13.68;;
27199;SDS011;14714;48.106;11.546;2022-12-04T07:46:25;25.08;;;13.40;;
27199;SDS011;14714;48.106;11.546;2022-12-04T07:48:56;25.13;;;12.77;;
27199;SDS011;14714;48.106;11.546;2022-12-04T07:51:25;24.45;;;12.32;;
27199;SDS011;14714;48.106;11.546;2022-12-04T07:53:53;25.65;;;12.93;;
27199;SDS011;14714;48.106;11.546;2022-12-04T07:56:28;25.35;;;13.35;;
27199;SDS011;14714;48.106;11.546;2022-12-04T07:58:55;26.92;;;13.18;;
27199;SDS011;14714;48.106;11.546;2022-12-04T08:01:22;25.88;;;13.30;;
27199;SDS011;14714;48.106;11.546;2022-12-04T08:03:51;24.55;;;13.73;;
27199;SDS011;14714;48.106;11.546;2022-12-04T08:06:21;29.13;;;13.45;;
27199;SDS011;14714;48.106;11.546;2022-12-04T08:08:49;29.45;;;13.98;;
27199;SDS011;14714;48.106;11.546;2022-12-04T08:11:18;28.67;;;14.57;;
27199;SDS011;14714;48.106;11.546;2022-12-04T08:13:56;28.20;;;14.70;;
27199;SDS011;14714;48.106;11.546;2022-12-04T08:16:27;25.23;;;13.23;;
27199;SDS011;14714;48.106;11.546;2022-12-04T08:18:56;24.70;;;12.68;;
27199;SDS011;14714;48.106;11.546;2022-12-04T08:21:24;22.55;;;12.10;;
27199;SDS011;14714;48.106;11.546;2022-12-04T08:23:55;24.10;;;12.60;;
27199;SDS011;14714;48.106;11.546;2022-12-04T08:26:23;20.33;;;11.40;;
27199;SDS011;14714;48.106;11.546;2022-12-04T08:28:52;23.67;;;11.93;;
27199;SDS011;14714;48.106;11.546;2022-12-04T08:31:22;24.38;;;13.25;;
27199;SDS011;14714;48.106;11.546;2022-12-04T08:33:52;25.38;;;13.40;;
27199;SDS011;14714;48.106;11.546;2022-12-04T08:36:20;23.90;;;12.63;;
27199;SDS011;14714;48.106;11.546;2022-12-04T08:38:47;25.73;;;13.15;;
27199;SDS011;14714;48.106;11.546;2022-12-04T08:41:15;26.92;;;13.80;;
27199;SDS011;14714;48.106;11.546;2022-12-04T08:43:43;26.17;;;13.45;;
27199;SDS011;14714;48.106;11.546;2022-12-04T08:46:12;24.05;;;13.25;;
27199;SDS011;14714;48.106;11.546;2022-12-04T08:48:43;25.75;;;13.05;;
27199;SDS011;14714;48.106;11.546;2022-12-04T08:51:14;25.00;;;13.05;;
27199;SDS011;14714;48.106;11.546;2022-12-04T08:53:51;23.90;;;12.77;;
27199;SDS011;14714;48.106;11.546;2022-12-04T08:56:22;24.27;;;13.05;;
27199;SDS011;14714;48.106;11.546;2022-12-04T08:58:49;27.58;;;13.32;;
27199;SDS011;14714;48.106;11.546;2022-12-04T09:01:16;23.77;;;12.85;;
27199;SDS011;14714;48.106;11.546;2022-12-04T09:03:43;26.83;;;13.43;;
27199;SDS011;14714;48.106;11.546;2022-12-04T09:06:11;24.55;;;13.00;;
27199;SDS011;14714;48.106;11.546;2022-12-04T09:08:40;28.05;;;14.63;;
27199;SDS011;14714;48.106;11.546;2022-12-04T09:11:12;24.77;;;13.10;;
27199;SDS011;14714;48.106;11.546;2022-12-04T09:13:41;31.63;;;14.50;;
27199;SDS011;14714;48.106;11.546;2022-12-04T09:16:16;28.15;;;14.02;;
27199;SDS011;14714;48.106;11.546;2022-12-04T09:18:44;31.55;;;14.73;;
27199;SDS011;14714;48.106;11.546;2022-12-04T09:21:13;29.27;;;14.63;;
27199;SDS011;14714;48.106;11.546;2022-12-04T09:23:42;27.43;;;14.57;;
27199;SDS011;14714;48.106;11.546;2022-12-04T09:26:18;27.50;;;14.38;;
27199;SDS011;14714;48.106;11.546;2022-12-04T09:28:52;27.38;;;14.55;;
27199;SDS011;14714;48.106;11.546;2022-12-04T09:31:21;27.48;;;13.93;;
27199;SDS011;14714;48.106;11.546;2022-12-04T09:33:49;22.80;;;12.63;;
27199;SDS011;14714;48.106;11.546;2022-12-04T09:36:17;20.48;;;12.45;;
27199;SDS011;14714;48.106;11.546;2022-12-04T09:38:45;18.23;;;10.98;;
27199;SDS011;14714;48.106;11.546;2022-12-04T09:46:50;21.10;;;12.43;;
27199;SDS011;14714;48.106;11.546;2022-12-04T09:49:20;19.70;;;11.45;;
27199;SDS011;14714;48.106;11.546;2022-12-04T09:54:47;15.27;;;9.68;;
27199;SDS011;14714;48.106;11.546;2022-12-04T09:57:18;17.88;;;11.35;;
27199;SDS011;14714;48.106;11.546;2022-12-04T09:59:53;21.15;;;12.43;;
27199;SDS011;14714;48.106;11.546;2022-12-04T10:02:36;20.20;;;11.52;;
27199;SDS011;14714;48.106;11.546;2022-12-04T10:05:05;19.67;;;11.55;;
27199;SDS011;14714;48.106;11.546;2022-12-04T10:07:46;19.75;;;11.88;;
27199;SDS011;14714;48.106;11.546;2022-12-04T10:10:41;19.83;;;11.45;;
27199;SDS011;14714;48.106;11.546;2022-12-04T10:14:18;18.75;;;10.90;;
27199;SDS011;14714;48.106;11.546;2022-12-04T10:22:01;16.25;;;9.73;;
27199;SDS011;14714;48.106;11.546;2022-12-04T10:24:50;16.27;;;10.63;;
27199;SDS011;14714;48.106;11.546;2022-12-04T10:27:25;15.75;;;9.85;;
27199;SDS011;14714;48.106;11.546;2022-12-04T10:30:09;18.90;;;11.68;;
27199;SDS011;14714;48.106;11.546;2022-12-04T10:32:47;18.00;;;10.52;;
27199;SDS011;14714;48.106;11.546;2022-12-04T10:35:20;18.80;;;11.82;;
27199;SDS011;14714;48.106;11.546;2022-12-04T10:37:51;17.02;;;10.57;;
27199;SDS011;14714;48.106;11.546;2022-12-04T10:40:24;19.15;;;12.13;;
27199;SDS011;14714;48.106;11.546;2022-12-04T10:43:11;19.85;;;12.13;;
27199;SDS011;14714;48.106;11.546;2022-12-04T10:45:45;19.23;;;10.85;;
27199;SDS011;14714;48.106;11.546;2022-12-04T10:48:17;18.05;;;11.57;;
27199;SDS011;14714;48.106;11.546;2022-12-04T10:51:09;19.70;;;12.50;;
27199;SDS011;14714;48.106;11.546;2022-12-04T10:53:42;19.23;;;12.25;;
27199;SDS011;14714;48.106;11.546;2022-12-04T10:56:18;21.55;;;13.27;;
27199;SDS011;14714;48.106;11.546;2022-12-04T10:58:57;22.17;;;12.90;;
27199;SDS011;14714;48.106;11.546;2022-12-04T11:01:30;21.80;;;13.13;;
27199;SDS011;14714;48.106;11.546;2022-12-04T11:04:01;22.10;;;13.13;;
27199;SDS011;14714;48.106;11.546;2022-12-04T11:06:30;23.33;;;13.35;;
27199;SDS011;14714;48.106;11.546;2022-12-04T11:08:58;22.85;;;13.25;;
27199;SDS011;14714;48.106;11.546;2022-12-04T11:11:30;24.27;;;14.07;;
27199;SDS011;14714;48.106;11.546;2022-12-04T11:14:01;22.60;;;12.73;;
27199;SDS011;14714;48.106;11.546;2022-12-04T11:16:46;20.67;;;12.63;;
27199;SDS011;14714;48.106;11.546;2022-12-04T11:19:19;23.23;;;13.23;;
27199;SDS011;14714;48.106;11.546;2022-12-04T11:21:51;22.15;;;12.75;;
27199;SDS011;14714;48.106;11.546;2022-12-04T11:24:35;22.60;;;13.40;;
27199;SDS011;14714;48.106;11.546;2022-12-04T11:27:03;23.40;;;13.27;;
27199;SDS011;14714;48.106;11.546;2022-12-04T11:29:36;21.13;;;12.68;;
27199;SDS011;14714;48.106;11.546;2022-12-04T11:35:21;21.92;;;13.60;;
27199;SDS011;14714;48.106;11.546;2022-12-04T11:37:52;22.65;;;13.25;;
27199;SDS011;14714;48.106;11.546;2022-12-04T11:43:19;21.42;;;13.48;;
27199;SDS011;14714;48.106;11.546;2022-12-04T11:48:46;21.88;;;13.82;;
27199;SDS011;14714;48.106;11.546;2022-12-04T11:54:14;23.67;;;13.40;;
27199;SDS011;14714;48.106;11.546;2022-12-04T12:10:29;24.60;;;14.00;;
27199;SDS011;14714;48.106;11.546;2022-12-04T12:16:11;24.17;;;14.07;;
27199;SDS011;14714;48.106;11.546;2022-12-04T12:24:53;25.07;;;14.40;;
27199;SDS011;14714;48.106;11.546;2022-12-04T12:30:53;24.42;;;14.60;;
27199;SDS011;14714;48.106;11.546;2022-12-04T12:36:43;24.70;;;14.10;;
27199;SDS011;14714;48.106;11.546;2022-12-04T12:39:17;27.80;;;14.38;;
27199;SDS011;14714;48.106;11.546;2022-12-04T12:47:48;25.02;;;13.73;;
27199;SDS011;14714;48.106;11.546;2022-12-04T12:50:21;23.80;;;13.63;;
27199;SDS011;14714;48.106;11.546;2022-12-04T12:52:57;24.30;;;14.20;;
27199;SDS011;14714;48.106;11.546;2022-12-04T12:55:29;25.52;;;13.77;;
27199;SDS011;14714;48.106;11.546;2022-12-04T12:58:11;24.63;;;14.18;;
27199;SDS011;14714;48.106;11.546;2022-12-04T13:00:44;26.08;;;13.98;;
27199;SDS011;14714;48.106;11.546;2022-12-04T13:05:52;25.40;;;14.93;;
27199;SDS011;14714;48.106;11.546;2022-12-04T13:08:26;24.95;;;14.35;;
27199;SDS011;14714;48.106;11.546;2022-12-04T13:11:06;23.38;;;13.75;;
27199;SDS011;14714;48.106;11.546;2022-12-04T13:14:05;25.98;;;15.02;;
27199;SDS011;14714;48.106;11.546;2022-12-04T13:24:46;23.65;;;13.38;;
27199;SDS011;14714;48.106;11.546;2022-12-04T13:27:27;26.15;;;13.43;;
27199;SDS011;14714;48.106;11.546;2022-12-04T13:30:22;24.75;;;14.23;;
27199;SDS011;14714;48.106;11.546;2022-12-04T13:33:07;24.90;;;13.52;;
27199;SDS011;14714;48.106;11.546;2022-12-04T13:41:20;24.63;;;13.75;;
27199;SDS011;14714;48.106;11.546;2022-12-04T13:43:50;23.33;;;13.77;;
27199;SDS011;14714;48.106;11.546;2022-12-04T13:49:36;26.17;;;14.15;;
27199;SDS011;14714;48.106;11.546;2022-12-04T13:51:58;21.35;;;12.60;;
27199;SDS011;14714;48.106;11.546;2022-12-04T13:54:28;22.77;;;13.55;;
27199;SDS011;14714;48.106;11.546;2022-12-04T13:59:42;22.08;;;13.00;;
27199;SDS011;14714;48.106;11.546;2022-12-04T14:02:20;25.02;;;14.10;;
27199;SDS011;14714;48.106;11.546;2022-12-04T14:07:29;26.60;;;14.20;;
27199;SDS011;14714;48.106;11.546;2022-12-04T14:10:06;25.15;;;13.90;;
27199;SDS011;14714;48.106;11.546;2022-12-04T14:12:41;23.35;;;13.98;;
27199;SDS011;14714;48.106;11.546;2022-12-04T14:15:21;25.13;;;14.10;;
27199;SDS011;14714;48.106;11.546;2022-12-04T14:18:00;23.85;;;14.23;;
27199;SDS011;14714;48.106;11.546;2022-12-04T14:20:31;24.73;;;14.88;;
27199;SDS011;14714;48.106;11.546;2022-12-04T14:25:58;24.63;;;14.52;;
27199;SDS011;14714;48.106;11.546;2022-12-04T14:33:36;26.35;;;15.30;;
27199;SDS011;14714;48.106;11.546;2022-12-04T14:36:09;24.70;;;14.70;;
27199;SDS011;14714;48.106;11.546;2022-12-04T14:38:44;26.25;;;14.30;;
27199;SDS011;14714;48.106;11.546;2022-12-04T14:43:48;28.13;;;14.75;;
27199;SDS011;14714;48.106;11.546;2022-12-04T15:00:24;32.33;;;17.98;;
27199;SDS011;14714;48.106;11.546;2022-12-04T15:02:53;36.25;;;17.90;;
27199;SDS011;14714;48.106;11.546;2022-12-04T15:05:28;36.55;;;19.88;;
27199;SDS011;14714;48.106;11.546;2022-12-04T15:07:58;40.05;;;20.42;;
27199;SDS011;14714;48.106;11.546;2022-12-04T15:10:28;37.28;;;19.63;;
27199;SDS011;14714;48.106;11.546;2022-12-04T15:13:28;37.75;;;19.85;;
27199;SDS011;14714;48.106;11.546;2022-12-04T15:15:56;36.97;;;19.45;;
27199;SDS011;14714;48.106;11.546;2022-12-04T15:18:23;38.90;;;19.63;;
27199;SDS011;14714;48.106;11.546;2022-12-04T15:23:27;40.08;;;19.33;;
27199;SDS011;14714;48.106;11.546;2022-12-04T15:25:55;40.53;;;19.88;;
27199;SDS011;14714;48.106;11.546;2022-12-04T15:30:59;38.85;;;18.92;;
27199;SDS011;14714;48.106;11.546;2022-12-04T15:33:34;39.42;;;20.27;;
27199;SDS011;14714;48.106;11.546;2022-12-04T15:36:16;38.60;;;19.77;;
27199;SDS011;14714;48.106;11.546;2022-12-04T15:39:03;41.50;;;19.13;;
27199;SDS011;14714;48.106;11.546;2022-12-04T15:43:58;36.00;;;18.95;;
27199;SDS011;14714;48.106;11.546;2022-12-04T15:46:33;39.78;;;19.55;;
27199;SDS011;14714;48.106;11.546;2022-12-04T15:49:04;37.13;;;17.40;;
27199;SDS011;14714;48.106;11.546;2022-12-04T15:52:01;37.72;;;18.33;;
27199;SDS011;14714;48.106;11.546;2022-12-04T15:54:54;36.08;;;17.75;;
27199;SDS011;14714;48.106;11.546;2022-12-04T15:57:29;34.30;;;17.33;;
27199;SDS011;14714;48.106;11.546;2022-12-04T16:00:00;38.03;;;17.02;;
27199;SDS011;14714;48.106;11.546;2022-12-04T16:02:34;33.97;;;18.00;;
27199;SDS011;14714;48.106;11.546;2022-12-04T16:05:11;32.65;;;17.35;;
27199;SDS011;14714;48.106;11.546;2022-12-04T16:07:50;28.73;;;15.13;;
27199;SDS011;14714;48.106;11.546;2022-12-04T16:10:23;30.88;;;15.98;;
27199;SDS011;14714;48.106;11.546;2022-12-04T16:12:56;29.05;;;15.63;;
27199;SDS011;14714;48.106;11.546;2022-12-04T16:15:36;27.42;;;14.60;;
27199;SDS011;14714;48.106;11.546;2022-12-04T16:18:05;27.38;;;14.95;;
27199;SDS011;14714;48.106;11.546;2022-12-04T16:20:36;29.70;;;15.70;;
27199;SDS011;14714;48.106;11.546;2022-12-04T16:23:04;29.67;;;15.30;;
27199;SDS011;14714;48.106;11.546;2022-12-04T16:25:31;29.33;;;14.75;;
27199;SDS011;14714;48.106;11.546;2022-12-04T16:27:58;28.70;;;15.15;;
27199;SDS011;14714;48.106;11.546;2022-12-04T16:30:26;25.55;;;14.32;;
27199;SDS011;14714;48.106;11.546;2022-12-04T16:32:54;30.08;;;15.48;;
27199;SDS011;14714;48.106;11.546;2022-12-04T16:35:21;30.08;;;15.40;;
27199;SDS011;14714;48.106;11.546;2022-12-04T16:37:48;28.13;;;15.00;;
27199;SDS011;14714;48.106;11.546;2022-12-04T16:40:15;27.77;;;14.95;;
27199;SDS011;14714;48.106;11.546;2022-12-04T16:42:42;24.25;;;13.23;;
27199;SDS011;14714;48.106;11.546;2022-12-04T16:47:53;24.48;;;13.15;;
27199;SDS011;14714;48.106;11.546;2022-12-04T16:50:23;22.67;;;12.50;;
27199;SDS011;14714;48.106;11.546;2022-12-04T16:52:51;22.02;;;12.48;;
27199;SDS011;14714;48.106;11.546;2022-12-04T16:55:19;21.58;;;12.23;;
27199;SDS011;14714;48.106;11.546;2022-12-04T16:57:46;22.67;;;11.90;;
27199;SDS011;14714;48.106;11.546;2022-12-04T17:00:14;21.95;;;12.65;;
27199;SDS011;14714;48.106;11.546;2022-12-04T17:02:42;23.67;;;13.32;;
27199;SDS011;14714;48.106;11.546;2022-12-04T17:05:17;23.08;;;13.10;;
27199;SDS011;14714;48.106;11.546;2022-12-04T17:07:52;24.98;;;12.95;;
27199;SDS011;14714;48.106;11.546;2022-12-04T17:10:20;22.48;;;12.48;;
27199;SDS011;14714;48.106;11.546;2022-12-04T17:12:52;23.43;;;11.60;;
27199;SDS011;14714;48.106;11.546;2022-12-04T17:15:20;21.75;;;11.95;;